createdAt,value
2022-08-29T00:02:35.495Z,25.92
2022-08-29T00:05:25.242Z,25.88
2022-08-29T00:08:11.718Z,25.90
2022-08-29T00:11:02.482Z,25.88
2022-08-29T00:13:48.994Z,25.85
2022-08-29T00:16:35.446Z,25.83
2022-08-29T00:19:21.838Z,25.80
2022-08-29T00:22:07.955Z,25.79
2022-08-29T00:24:53.993Z,25.73
2022-08-29T00:27:40.599Z,25.71
2022-08-29T00:30:31.338Z,25.66
2022-08-29T00:33:17.930Z,25.59
2022-08-29T00:36:04.480Z,25.58
2022-08-29T00:38:50.474Z,25.53
2022-08-29T00:41:37.771Z,25.52
2022-08-29T00:44:24.078Z,25.49
2022-08-29T00:47:12.292Z,25.45
2022-08-29T00:49:58.680Z,25.37
2022-08-29T00:52:47.073Z,25.39
2022-08-29T00:55:34.883Z,25.38
2022-08-29T00:58:41.111Z,25.34
2022-08-29T01:01:30.594Z,25.36
2022-08-29T01:04:24.038Z,25.35
2022-08-29T01:07:14.634Z,25.37
2022-08-29T01:10:13.338Z,25.34
2022-08-29T01:13:07.688Z,25.30
2022-08-29T01:15:59.525Z,25.28
2022-08-29T01:18:47.961Z,25.28
2022-08-29T01:21:36.867Z,25.26
2022-08-29T01:24:27.085Z,25.20
2022-08-29T01:27:14.364Z,25.17
2022-08-29T01:30:00.186Z,25.18
2022-08-29T01:32:46.275Z,25.14
2022-08-29T01:35:33.694Z,25.13
2022-08-29T01:38:36.678Z,25.12
2022-08-29T01:41:22.850Z,25.06
2022-08-29T01:44:12.109Z,25.06
2022-08-29T01:47:02.707Z,25.03
2022-08-29T01:49:49.304Z,25.02
2022-08-29T01:52:36.134Z,25.00
2022-08-29T01:55:22.189Z,24.98
2022-08-29T01:58:09.171Z,24.97
2022-08-29T02:00:58.553Z,24.93
2022-08-29T02:03:45.486Z,24.94
2022-08-29T02:06:31.405Z,24.88
2022-08-29T02:09:20.770Z,24.88
2022-08-29T02:12:07.276Z,24.92
2022-08-29T02:14:53.148Z,24.85
2022-08-29T02:17:39.286Z,24.88
2022-08-29T02:20:25.109Z,24.86
2022-08-29T02:23:29.833Z,24.84
2022-08-29T02:26:17.328Z,24.80
2022-08-29T02:29:03.666Z,24.81
2022-08-29T02:31:49.724Z,24.79
2022-08-29T02:34:36.703Z,24.79
2022-08-29T02:37:22.534Z,24.74
2022-08-29T02:40:09.143Z,24.73
2022-08-29T02:42:55.257Z,24.70
2022-08-29T02:45:41.914Z,24.72
2022-08-29T02:48:28.114Z,24.70
2022-08-29T02:51:23.246Z,24.67
2022-08-29T02:54:09.774Z,24.70
2022-08-29T02:56:55.604Z,24.63
2022-08-29T02:59:41.570Z,24.60
2022-08-29T03:02:27.936Z,24.63
2022-08-29T03:05:15.451Z,24.66
2022-08-29T03:08:03.112Z,24.66
2022-08-29T03:10:49.341Z,24.67
2022-08-29T03:13:35.737Z,24.66
2022-08-29T03:16:21.600Z,24.65
2022-08-29T03:19:07.478Z,24.65
2022-08-29T03:21:53.250Z,24.65
2022-08-29T03:24:39.374Z,24.64
2022-08-29T03:27:25.493Z,24.60
2022-08-29T03:30:14.078Z,24.61
2022-08-29T03:33:00.104Z,24.57
2022-08-29T03:35:45.975Z,24.59
2022-08-29T03:38:31.722Z,24.60
2022-08-29T03:41:22.673Z,24.59
2022-08-29T03:44:08.883Z,24.58
2022-08-29T03:46:55.053Z,24.61
2022-08-29T03:49:40.961Z,24.61
2022-08-29T03:52:26.955Z,24.60
2022-08-29T03:55:14.325Z,24.62
2022-08-29T03:58:00.229Z,24.61
2022-08-29T04:00:47.047Z,24.60
2022-08-29T04:03:33.237Z,24.62
2022-08-29T04:06:19.851Z,24.60
2022-08-29T04:09:05.723Z,24.61
2022-08-29T04:11:52.681Z,24.60
2022-08-29T04:14:39.661Z,24.60
2022-08-29T04:17:25.828Z,24.58
2022-08-29T04:20:13.071Z,24.51
2022-08-29T04:22:59.842Z,24.55
2022-08-29T04:25:45.723Z,24.52
2022-08-29T04:28:31.808Z,24.51
2022-08-29T04:31:20.380Z,24.52
2022-08-29T04:34:07.315Z,24.49
2022-08-29T04:36:53.502Z,24.49
2022-08-29T04:39:41.813Z,24.49
2022-08-29T04:42:28.082Z,24.45
2022-08-29T04:45:18.126Z,24.42
2022-08-29T04:48:04.337Z,24.40
2022-08-29T04:50:56.464Z,24.42
2022-08-29T04:53:43.150Z,24.44
2022-08-29T04:56:28.820Z,24.42
2022-08-29T04:59:16.646Z,24.42
2022-08-29T05:02:02.443Z,24.40
2022-08-29T05:04:52.546Z,24.38
2022-08-29T05:07:38.536Z,24.34
2022-08-29T05:10:24.626Z,24.31
2022-08-29T05:13:10.645Z,24.28
2022-08-29T05:15:56.512Z,24.31
2022-08-29T05:18:44.430Z,24.33
2022-08-29T05:21:35.497Z,24.32
2022-08-29T05:24:22.364Z,24.32
2022-08-29T05:27:10.288Z,24.34
2022-08-29T05:29:56.324Z,24.34
2022-08-29T05:32:42.877Z,24.33
2022-08-29T05:35:28.768Z,24.35
2022-08-29T05:38:14.947Z,24.32
2022-08-29T05:41:01.802Z,24.34
2022-08-29T05:43:47.674Z,24.33
2022-08-29T05:46:33.756Z,24.35
2022-08-29T05:49:20.152Z,24.36
2022-08-29T05:52:06.783Z,24.36
2022-08-29T05:54:52.741Z,24.37
2022-08-29T05:57:38.698Z,24.41
2022-08-29T06:00:25.097Z,24.43
2022-08-29T06:03:11.967Z,24.45
2022-08-29T06:05:58.134Z,24.46
2022-08-29T06:08:44.171Z,24.51
2022-08-29T06:11:32.479Z,24.51
2022-08-29T06:14:18.374Z,24.56
2022-08-29T06:17:05.640Z,24.56
2022-08-29T06:19:54.733Z,24.58
2022-08-29T06:22:40.883Z,24.59
2022-08-29T06:25:39.636Z,24.55
2022-08-29T06:28:31.344Z,24.59
2022-08-29T06:31:22.929Z,24.56
2022-08-29T06:34:09.858Z,24.63
2022-08-29T06:36:55.479Z,24.66
2022-08-29T06:39:41.320Z,24.65
2022-08-29T06:42:28.658Z,24.72
2022-08-29T06:45:14.617Z,24.76
2022-08-29T06:48:06.914Z,24.81
2022-08-29T06:51:08.671Z,24.87
2022-08-29T06:53:54.556Z,24.93
2022-08-29T06:56:42.376Z,24.96
2022-08-29T06:59:28.348Z,24.97
2022-08-29T07:02:14.439Z,25.03
2022-08-29T07:05:00.408Z,25.09
2022-08-29T07:07:46.450Z,25.09
2022-08-29T07:10:32.547Z,25.16
2022-08-29T07:13:18.651Z,25.21
2022-08-29T07:16:08.558Z,25.22
2022-08-29T07:18:54.581Z,25.25
2022-08-29T07:21:40.525Z,25.28
2022-08-29T07:24:26.772Z,25.30
2022-08-29T07:27:14.048Z,25.33
2022-08-29T07:30:02.599Z,25.35
2022-08-29T07:32:48.928Z,25.41
2022-08-29T07:35:34.923Z,25.45
2022-08-29T07:38:21.561Z,25.48
2022-08-29T07:41:09.681Z,25.53
2022-08-29T07:43:55.629Z,25.56
2022-08-29T07:46:42.299Z,25.61
2022-08-29T07:49:40.593Z,25.64
2022-08-29T07:52:26.888Z,25.70
2022-08-29T07:55:12.870Z,25.74
2022-08-29T07:57:59.040Z,25.79
2022-08-29T08:00:45.388Z,25.86
2022-08-29T08:03:32.963Z,25.90
2022-08-29T08:06:23.579Z,25.93
2022-08-29T08:09:10.252Z,25.93
2022-08-29T08:11:57.708Z,25.97
2022-08-29T08:14:43.713Z,26.03
2022-08-29T08:17:29.952Z,26.03
2022-08-29T08:20:15.804Z,26.03
2022-08-29T08:23:02.544Z,26.10
2022-08-29T08:25:48.392Z,26.17
2022-08-29T08:28:34.349Z,26.20
2022-08-29T08:31:20.665Z,26.23
2022-08-29T08:34:07.414Z,26.28
